sensor_id;sensor_type;location;lat;lon;timestamp;temperature;humidity
20479;DHT22;10398;52.490;13.434;2023-06-19T00:01:49;20.10;99.90
20479;DHT22;10398;52.490;13.434;2023-06-19T00:04:15;20.10;99.90
20479;DHT22;10398;52.490;13.434;2023-06-19T00:06:40;20.10;99.90
20479;DHT22;10398;52.490;13.434;2023-06-19T00:09:07;20.10;99.90
20479;DHT22;10398;52.490;13.434;2023-06-19T00:11:32;20.10;99.90
20479;DHT22;10398;52.490;13.434;2023-06-19T00:13:58;20.00;99.90
20479;DHT22;10398;52.490;13.434;2023-06-19T00:16:24;19.90;99.90
20479;DHT22;10398;52.490;13.434;2023-06-19T00:18:51;19.90;99.90
20479;DHT22;10398;52.490;13.434;2023-06-19T00:21:17;19.80;99.90
20479;DHT22;10398;52.490;13.434;2023-06-19T00:23:43;19.80;99.90
20479;DHT22;10398;52.490;13.434;2023-06-19T00:26:08;19.90;99.90
20479;DHT22;10398;52.490;13.434;2023-06-19T00:28:34;19.90;99.90
20479;DHT22;10398;52.490;13.434;2023-06-19T00:31:00;19.90;99.90
20479;DHT22;10398;52.490;13.434;2023-06-19T00:33:25;19.90;99.90
20479;DHT22;10398;52.490;13.434;2023-06-19T00:35:51;19.90;99.90
20479;DHT22;10398;52.490;13.434;2023-06-19T00:38:17;19.90;99.90
20479;DHT22;10398;52.490;13.434;2023-06-19T00:40:43;19.90;99.90
20479;DHT22;10398;52.490;13.434;2023-06-19T00:43:09;19.90;99.90
20479;DHT22;10398;52.490;13.434;2023-06-19T00:45:36;19.90;99.90
20479;DHT22;10398;52.490;13.434;2023-06-19T00:48:02;19.90;99.90
20479;DHT22;10398;52.490;13.434;2023-06-19T00:50:29;19.90;99.90
20479;DHT22;10398;52.490;13.434;2023-06-19T00:52:56;19.90;99.90
20479;DHT22;10398;52.490;13.434;2023-06-19T00:55:22;19.80;99.90
20479;DHT22;10398;52.490;13.434;2023-06-19T00:57:49;19.70;99.90
20479;DHT22;10398;52.490;13.434;2023-06-19T01:00:15;19.80;99.90
20479;DHT22;10398;52.490;13.434;2023-06-19T01:02:41;19.80;99.90
20479;DHT22;10398;52.490;13.434;2023-06-19T01:05:06;19.80;99.90
20479;DHT22;10398;52.490;13.434;2023-06-19T01:07:57;19.80;99.90
20479;DHT22;10398;52.490;13.434;2023-06-19T01:10:30;19.80;99.90
20479;DHT22;10398;52.490;13.434;2023-06-19T01:13:21;19.80;99.90
20479;DHT22;10398;52.490;13.434;2023-06-19T01:15:47;19.90;99.90
20479;DHT22;10398;52.490;13.434;2023-06-19T01:18:13;19.90;99.90
20479;DHT22;10398;52.490;13.434;2023-06-19T01:20:40;19.90;99.90
20479;DHT22;10398;52.490;13.434;2023-06-19T01:23:10;19.90;99.90
20479;DHT22;10398;52.490;13.434;2023-06-19T01:25:36;19.90;99.90
20479;DHT22;10398;52.490;13.434;2023-06-19T01:28:07;19.80;99.90
20479;DHT22;10398;52.490;13.434;2023-06-19T01:30:35;19.80;99.90
20479;DHT22;10398;52.490;13.434;2023-06-19T01:33:22;19.80;99.90
20479;DHT22;10398;52.490;13.434;2023-06-19T01:35:49;19.70;99.90
20479;DHT22;10398;52.490;13.434;2023-06-19T01:38:16;19.70;99.90
20479;DHT22;10398;52.490;13.434;2023-06-19T01:40:43;19.70;99.90
20479;DHT22;10398;52.490;13.434;2023-06-19T01:43:09;19.70;99.90
20479;DHT22;10398;52.490;13.434;2023-06-19T01:45:35;19.70;99.90
20479;DHT22;10398;52.490;13.434;2023-06-19T01:48:01;19.60;99.90
20479;DHT22;10398;52.490;13.434;2023-06-19T01:50:27;19.60;99.90
20479;DHT22;10398;52.490;13.434;2023-06-19T01:52:53;19.60;99.90
20479;DHT22;10398;52.490;13.434;2023-06-19T01:55:19;19.60;99.90
20479;DHT22;10398;52.490;13.434;2023-06-19T01:57:45;19.60;99.90
20479;DHT22;10398;52.490;13.434;2023-06-19T02:00:13;19.60;99.90
20479;DHT22;10398;52.490;13.434;2023-06-19T02:02:39;19.50;99.90
20479;DHT22;10398;52.490;13.434;2023-06-19T02:05:05;19.50;99.90
20479;DHT22;10398;52.490;13.434;2023-06-19T02:07:31;19.50;99.90
20479;DHT22;10398;52.490;13.434;2023-06-19T02:09:57;19.60;99.90
20479;DHT22;10398;52.490;13.434;2023-06-19T02:12:23;19.60;99.90
20479;DHT22;10398;52.490;13.434;2023-06-19T02:14:48;19.60;99.90
20479;DHT22;10398;52.490;13.434;2023-06-19T02:17:14;19.60;99.90
20479;DHT22;10398;52.490;13.434;2023-06-19T02:19:40;19.60;99.90
20479;DHT22;10398;52.490;13.434;2023-06-19T02:22:06;19.60;99.90
20479;DHT22;10398;52.490;13.434;2023-06-19T02:24:32;19.60;99.90
20479;DHT22;10398;52.490;13.434;2023-06-19T02:26:57;19.60;99.90
20479;DHT22;10398;52.490;13.434;2023-06-19T02:29:24;19.60;99.90
20479;DHT22;10398;52.490;13.434;2023-06-19T02:31:50;19.60;99.90
20479;DHT22;10398;52.490;13.434;2023-06-19T02:34:16;19.60;99.90
20479;DHT22;10398;52.490;13.434;2023-06-19T02:36:42;19.50;99.90
20479;DHT22;10398;52.490;13.434;2023-06-19T02:39:08;19.60;99.90
20479;DHT22;10398;52.490;13.434;2023-06-19T02:41:34;19.60;99.90
20479;DHT22;10398;52.490;13.434;2023-06-19T02:44:00;19.60;99.90
20479;DHT22;10398;52.490;13.434;2023-06-19T02:46:25;19.50;99.90
20479;DHT22;10398;52.490;13.434;2023-06-19T02:48:51;19.60;99.90
20479;DHT22;10398;52.490;13.434;2023-06-19T02:51:17;19.50;99.90
20479;DHT22;10398;52.490;13.434;2023-06-19T02:53:42;19.60;99.90
20479;DHT22;10398;52.490;13.434;2023-06-19T02:56:10;19.60;99.90
20479;DHT22;10398;52.490;13.434;2023-06-19T02:58:36;19.60;99.90
20479;DHT22;10398;52.490;13.434;2023-06-19T03:01:03;19.60;99.90
20479;DHT22;10398;52.490;13.434;2023-06-19T03:03:29;19.50;99.90
20479;DHT22;10398;52.490;13.434;2023-06-19T03:05:56;19.40;99.90
20479;DHT22;10398;52.490;13.434;2023-06-19T03:08:21;19.40;99.90
20479;DHT22;10398;52.490;13.434;2023-06-19T03:10:47;19.40;99.90
20479;DHT22;10398;52.490;13.434;2023-06-19T03:13:13;19.40;99.90
20479;DHT22;10398;52.490;13.434;2023-06-19T03:15:39;19.40;99.90
20479;DHT22;10398;52.490;13.434;2023-06-19T03:18:05;19.40;99.90
20479;DHT22;10398;52.490;13.434;2023-06-19T03:20:32;19.40;99.90
20479;DHT22;10398;52.490;13.434;2023-06-19T03:22:58;19.30;99.90
20479;DHT22;10398;52.490;13.434;2023-06-19T03:25:24;19.40;99.90
20479;DHT22;10398;52.490;13.434;2023-06-19T03:27:50;19.30;99.90
20479;DHT22;10398;52.490;13.434;2023-06-19T03:30:15;19.20;99.90
20479;DHT22;10398;52.490;13.434;2023-06-19T03:32:44;19.20;99.90
20479;DHT22;10398;52.490;13.434;2023-06-19T03:35:09;19.20;99.90
20479;DHT22;10398;52.490;13.434;2023-06-19T03:37:36;19.30;99.90
20479;DHT22;10398;52.490;13.434;2023-06-19T03:40:01;19.30;99.90
20479;DHT22;10398;52.490;13.434;2023-06-19T03:42:28;19.30;99.90
20479;DHT22;10398;52.490;13.434;2023-06-19T03:44:54;19.30;99.90
20479;DHT22;10398;52.490;13.434;2023-06-19T03:47:20;19.40;99.90
20479;DHT22;10398;52.490;13.434;2023-06-19T03:49:46;19.40;99.90
20479;DHT22;10398;52.490;13.434;2023-06-19T03:52:14;19.40;99.90
20479;DHT22;10398;52.490;13.434;2023-06-19T03:54:39;19.40;99.90
20479;DHT22;10398;52.490;13.434;2023-06-19T03:57:05;19.40;99.90
20479;DHT22;10398;52.490;13.434;2023-06-19T03:59:31;19.40;99.90
20479;DHT22;10398;52.490;13.434;2023-06-19T04:01:57;19.50;99.90
20479;DHT22;10398;52.490;13.434;2023-06-19T04:04:23;19.50;99.90
20479;DHT22;10398;52.490;13.434;2023-06-19T04:06:48;19.50;99.90
20479;DHT22;10398;52.490;13.434;2023-06-19T04:09:14;19.50;99.90
20479;DHT22;10398;52.490;13.434;2023-06-19T04:11:39;19.50;99.90
20479;DHT22;10398;52.490;13.434;2023-06-19T04:14:05;19.60;99.90
20479;DHT22;10398;52.490;13.434;2023-06-19T04:16:31;19.60;99.90
20479;DHT22;10398;52.490;13.434;2023-06-19T04:18:57;19.70;99.90
20479;DHT22;10398;52.490;13.434;2023-06-19T04:21:22;19.70;99.90
20479;DHT22;10398;52.490;13.434;2023-06-19T04:23:48;19.80;99.90
20479;DHT22;10398;52.490;13.434;2023-06-19T04:26:14;19.80;99.90
20479;DHT22;10398;52.490;13.434;2023-06-19T04:28:39;19.70;99.90
20479;DHT22;10398;52.490;13.434;2023-06-19T04:31:05;19.70;99.90
20479;DHT22;10398;52.490;13.434;2023-06-19T04:33:31;19.80;99.90
20479;DHT22;10398;52.490;13.434;2023-06-19T04:35:57;19.80;99.90
20479;DHT22;10398;52.490;13.434;2023-06-19T04:38:23;19.80;99.90
20479;DHT22;10398;52.490;13.434;2023-06-19T04:40:52;19.80;99.90
20479;DHT22;10398;52.490;13.434;2023-06-19T04:43:18;19.80;99.90
20479;DHT22;10398;52.490;13.434;2023-06-19T04:45:44;19.80;99.90
20479;DHT22;10398;52.490;13.434;2023-06-19T04:48:10;19.70;99.90
20479;DHT22;10398;52.490;13.434;2023-06-19T04:50:37;19.70;99.90
20479;DHT22;10398;52.490;13.434;2023-06-19T04:53:02;19.80;99.90
20479;DHT22;10398;52.490;13.434;2023-06-19T04:55:28;19.80;99.90
20479;DHT22;10398;52.490;13.434;2023-06-19T04:57:54;19.90;99.90
20479;DHT22;10398;52.490;13.434;2023-06-19T05:00:20;19.80;99.90
20479;DHT22;10398;52.490;13.434;2023-06-19T05:02:48;19.80;99.90
20479;DHT22;10398;52.490;13.434;2023-06-19T05:05:15;19.70;99.90
20479;DHT22;10398;52.490;13.434;2023-06-19T05:07:41;19.80;99.90
20479;DHT22;10398;52.490;13.434;2023-06-19T05:10:07;19.80;99.90
20479;DHT22;10398;52.490;13.434;2023-06-19T05:12:34;19.80;99.90
20479;DHT22;10398;52.490;13.434;2023-06-19T05:15:00;19.80;99.90
20479;DHT22;10398;52.490;13.434;2023-06-19T05:17:26;19.80;99.90
20479;DHT22;10398;52.490;13.434;2023-06-19T05:19:51;19.80;99.90
20479;DHT22;10398;52.490;13.434;2023-06-19T05:22:17;19.80;99.90
20479;DHT22;10398;52.490;13.434;2023-06-19T05:24:44;19.80;99.90
20479;DHT22;10398;52.490;13.434;2023-06-19T05:27:10;19.80;99.90
20479;DHT22;10398;52.490;13.434;2023-06-19T05:29:36;19.90;99.90
20479;DHT22;10398;52.490;13.434;2023-06-19T05:32:01;19.90;99.90
20479;DHT22;10398;52.490;13.434;2023-06-19T05:34:27;19.90;99.90
20479;DHT22;10398;52.490;13.434;2023-06-19T05:36:53;20.00;99.90
20479;DHT22;10398;52.490;13.434;2023-06-19T05:39:18;20.00;99.90
20479;DHT22;10398;52.490;13.434;2023-06-19T05:41:44;20.00;99.90
20479;DHT22;10398;52.490;13.434;2023-06-19T05:44:11;20.00;99.90
20479;DHT22;10398;52.490;13.434;2023-06-19T05:46:41;20.10;99.90
20479;DHT22;10398;52.490;13.434;2023-06-19T05:49:07;20.10;99.90
20479;DHT22;10398;52.490;13.434;2023-06-19T05:51:32;20.10;99.90
20479;DHT22;10398;52.490;13.434;2023-06-19T05:53:58;20.20;99.90
20479;DHT22;10398;52.490;13.434;2023-06-19T05:56:31;20.20;99.90
20479;DHT22;10398;52.490;13.434;2023-06-19T05:58:59;20.30;99.90
20479;DHT22;10398;52.490;13.434;2023-06-19T06:01:25;20.40;99.90
20479;DHT22;10398;52.490;13.434;2023-06-19T06:03:53;20.40;99.90
20479;DHT22;10398;52.490;13.434;2023-06-19T06:06:19;20.40;99.90
20479;DHT22;10398;52.490;13.434;2023-06-19T06:08:45;20.50;99.90
20479;DHT22;10398;52.490;13.434;2023-06-19T06:11:10;20.60;99.90
20479;DHT22;10398;52.490;13.434;2023-06-19T06:13:36;20.40;99.90
20479;DHT22;10398;52.490;13.434;2023-06-19T06:16:02;20.50;99.90
20479;DHT22;10398;52.490;13.434;2023-06-19T06:18:27;20.50;99.90
20479;DHT22;10398;52.490;13.434;2023-06-19T06:20:53;20.40;99.90
20479;DHT22;10398;52.490;13.434;2023-06-19T06:23:18;20.50;99.90
20479;DHT22;10398;52.490;13.434;2023-06-19T06:25:44;20.50;99.90
20479;DHT22;10398;52.490;13.434;2023-06-19T06:28:11;20.60;99.90
20479;DHT22;10398;52.490;13.434;2023-06-19T06:30:37;20.60;99.90
20479;DHT22;10398;52.490;13.434;2023-06-19T06:33:04;20.60;99.90
20479;DHT22;10398;52.490;13.434;2023-06-19T06:35:30;20.60;99.90
20479;DHT22;10398;52.490;13.434;2023-06-19T06:37:55;20.70;99.90
20479;DHT22;10398;52.490;13.434;2023-06-19T06:40:21;20.60;99.90
20479;DHT22;10398;52.490;13.434;2023-06-19T06:42:47;20.50;99.90
20479;DHT22;10398;52.490;13.434;2023-06-19T06:45:12;20.60;99.90
20479;DHT22;10398;52.490;13.434;2023-06-19T06:47:39;20.60;99.90
20479;DHT22;10398;52.490;13.434;2023-06-19T06:50:06;20.50;99.90
20479;DHT22;10398;52.490;13.434;2023-06-19T06:52:32;20.50;99.90
20479;DHT22;10398;52.490;13.434;2023-06-19T06:54:58;20.50;99.90
20479;DHT22;10398;52.490;13.434;2023-06-19T06:57:24;20.50;99.90
20479;DHT22;10398;52.490;13.434;2023-06-19T06:59:50;20.50;99.90
20479;DHT22;10398;52.490;13.434;2023-06-19T07:02:16;20.50;99.90
20479;DHT22;10398;52.490;13.434;2023-06-19T07:04:41;20.50;99.90
20479;DHT22;10398;52.490;13.434;2023-06-19T07:07:07;20.50;99.90
20479;DHT22;10398;52.490;13.434;2023-06-19T07:09:34;20.60;99.90
20479;DHT22;10398;52.490;13.434;2023-06-19T07:12:00;20.70;99.90
20479;DHT22;10398;52.490;13.434;2023-06-19T07:14:27;20.60;99.90
20479;DHT22;10398;52.490;13.434;2023-06-19T07:16:53;20.70;99.90
20479;DHT22;10398;52.490;13.434;2023-06-19T07:19:19;20.70;99.90
20479;DHT22;10398;52.490;13.434;2023-06-19T07:21:45;20.70;99.90
20479;DHT22;10398;52.490;13.434;2023-06-19T07:24:11;20.80;99.90
20479;DHT22;10398;52.490;13.434;2023-06-19T07:26:36;20.90;99.90
20479;DHT22;10398;52.490;13.434;2023-06-19T07:29:02;21.00;99.90
20479;DHT22;10398;52.490;13.434;2023-06-19T07:31:28;21.00;99.90
20479;DHT22;10398;52.490;13.434;2023-06-19T07:33:53;21.10;99.90
20479;DHT22;10398;52.490;13.434;2023-06-19T07:36:19;21.10;99.90
20479;DHT22;10398;52.490;13.434;2023-06-19T07:38:45;21.10;99.90
20479;DHT22;10398;52.490;13.434;2023-06-19T07:41:11;21.10;99.90
20479;DHT22;10398;52.490;13.434;2023-06-19T07:43:40;21.10;99.90
20479;DHT22;10398;52.490;13.434;2023-06-19T07:46:05;21.20;99.90
20479;DHT22;10398;52.490;13.434;2023-06-19T07:48:31;21.20;99.90
20479;DHT22;10398;52.490;13.434;2023-06-19T07:50:58;21.30;99.90
20479;DHT22;10398;52.490;13.434;2023-06-19T07:53:23;21.40;99.90
20479;DHT22;10398;52.490;13.434;2023-06-19T07:55:49;21.50;99.90
20479;DHT22;10398;52.490;13.434;2023-06-19T07:58:15;21.50;99.90
20479;DHT22;10398;52.490;13.434;2023-06-19T08:00:41;21.60;99.90
20479;DHT22;10398;52.490;13.434;2023-06-19T08:03:07;21.70;99.90
20479;DHT22;10398;52.490;13.434;2023-06-19T08:05:32;21.70;99.90
20479;DHT22;10398;52.490;13.434;2023-06-19T08:07:59;21.80;99.90
20479;DHT22;10398;52.490;13.434;2023-06-19T08:10:25;21.90;99.90
20479;DHT22;10398;52.490;13.434;2023-06-19T08:12:50;21.90;99.90
20479;DHT22;10398;52.490;13.434;2023-06-19T08:15:16;22.00;99.90
20479;DHT22;10398;52.490;13.434;2023-06-19T08:17:42;22.00;99.90
20479;DHT22;10398;52.490;13.434;2023-06-19T08:20:08;22.10;99.90
20479;DHT22;10398;52.490;13.434;2023-06-19T08:22:35;22.10;99.90
20479;DHT22;10398;52.490;13.434;2023-06-19T08:25:01;22.20;99.90
20479;DHT22;10398;52.490;13.434;2023-06-19T08:27:27;22.20;99.90
20479;DHT22;10398;52.490;13.434;2023-06-19T08:29:52;22.20;99.90
20479;DHT22;10398;52.490;13.434;2023-06-19T08:32:19;22.30;99.90
20479;DHT22;10398;52.490;13.434;2023-06-19T08:34:45;22.30;99.90
20479;DHT22;10398;52.490;13.434;2023-06-19T08:37:11;22.30;99.90
20479;DHT22;10398;52.490;13.434;2023-06-19T08:39:36;22.30;99.90
20479;DHT22;10398;52.490;13.434;2023-06-19T08:42:06;22.30;99.90
20479;DHT22;10398;52.490;13.434;2023-06-19T08:44:33;22.30;99.90
20479;DHT22;10398;52.490;13.434;2023-06-19T08:46:59;22.30;99.90
20479;DHT22;10398;52.490;13.434;2023-06-19T08:49:25;22.30;99.90
20479;DHT22;10398;52.490;13.434;2023-06-19T08:51:51;22.30;99.90
20479;DHT22;10398;52.490;13.434;2023-06-19T08:54:17;22.40;99.90
20479;DHT22;10398;52.490;13.434;2023-06-19T08:56:43;22.50;99.90
20479;DHT22;10398;52.490;13.434;2023-06-19T08:59:13;22.50;99.90
20479;DHT22;10398;52.490;13.434;2023-06-19T09:01:39;22.50;99.90
20479;DHT22;10398;52.490;13.434;2023-06-19T09:04:13;22.60;99.90
20479;DHT22;10398;52.490;13.434;2023-06-19T09:06:48;22.70;99.90
20479;DHT22;10398;52.490;13.434;2023-06-19T09:09:15;22.70;99.90
20479;DHT22;10398;52.490;13.434;2023-06-19T09:11:41;22.80;99.90
20479;DHT22;10398;52.490;13.434;2023-06-19T09:14:10;22.80;99.90
20479;DHT22;10398;52.490;13.434;2023-06-19T09:16:42;22.80;99.90
20479;DHT22;10398;52.490;13.434;2023-06-19T09:19:07;22.90;99.90
20479;DHT22;10398;52.490;13.434;2023-06-19T09:21:36;22.90;99.90
20479;DHT22;10398;52.490;13.434;2023-06-19T09:24:07;22.90;99.90
20479;DHT22;10398;52.490;13.434;2023-06-19T09:26:34;22.90;99.90
20479;DHT22;10398;52.490;13.434;2023-06-19T09:29:10;22.90;99.90
20479;DHT22;10398;52.490;13.434;2023-06-19T09:31:36;23.00;99.90
20479;DHT22;10398;52.490;13.434;2023-06-19T09:34:03;23.00;99.90
20479;DHT22;10398;52.490;13.434;2023-06-19T09:36:31;23.00;99.90
20479;DHT22;10398;52.490;13.434;2023-06-19T09:38:59;23.10;99.90
20479;DHT22;10398;52.490;13.434;2023-06-19T09:41:25;23.10;99.90
20479;DHT22;10398;52.490;13.434;2023-06-19T09:43:55;23.10;99.90
20479;DHT22;10398;52.490;13.434;2023-06-19T09:46:30;23.20;99.90
20479;DHT22;10398;52.490;13.434;2023-06-19T09:49:00;23.10;99.90
20479;DHT22;10398;52.490;13.434;2023-06-19T09:51:37;23.20;99.90
20479;DHT22;10398;52.490;13.434;2023-06-19T09:54:06;23.20;99.90
20479;DHT22;10398;52.490;13.434;2023-06-19T09:56:33;23.20;99.90
20479;DHT22;10398;52.490;13.434;2023-06-19T09:59:00;23.20;99.90
20479;DHT22;10398;52.490;13.434;2023-06-19T10:01:27;23.30;99.90
20479;DHT22;10398;52.490;13.434;2023-06-19T10:04:13;23.30;99.90
20479;DHT22;10398;52.490;13.434;2023-06-19T10:06:44;23.30;99.90
20479;DHT22;10398;52.490;13.434;2023-06-19T10:09:10;23.30;99.90
20479;DHT22;10398;52.490;13.434;2023-06-19T10:11:50;23.30;99.90
20479;DHT22;10398;52.490;13.434;2023-06-19T10:14:22;23.30;99.90
20479;DHT22;10398;52.490;13.434;2023-06-19T10:16:50;23.40;99.90
20479;DHT22;10398;52.490;13.434;2023-06-19T10:19:17;23.40;99.90
20479;DHT22;10398;52.490;13.434;2023-06-19T10:21:54;23.50;99.90
20479;DHT22;10398;52.490;13.434;2023-06-19T10:24:20;23.50;99.90
20479;DHT22;10398;52.490;13.434;2023-06-19T10:27:00;23.50;99.90
20479;DHT22;10398;52.490;13.434;2023-06-19T10:29:26;23.50;99.90
20479;DHT22;10398;52.490;13.434;2023-06-19T10:31:54;23.60;99.90
20479;DHT22;10398;52.490;13.434;2023-06-19T10:34:20;23.60;99.90
20479;DHT22;10398;52.490;13.434;2023-06-19T10:36:45;23.70;99.90
20479;DHT22;10398;52.490;13.434;2023-06-19T10:39:11;23.70;99.90
20479;DHT22;10398;52.490;13.434;2023-06-19T10:41:40;23.70;99.90
20479;DHT22;10398;52.490;13.434;2023-06-19T10:44:07;23.70;99.90
20479;DHT22;10398;52.490;13.434;2023-06-19T10:46:37;23.70;99.90
20479;DHT22;10398;52.490;13.434;2023-06-19T10:49:05;23.70;99.90
20479;DHT22;10398;52.490;13.434;2023-06-19T10:51:34;23.70;99.90
20479;DHT22;10398;52.490;13.434;2023-06-19T10:54:00;23.70;99.90
20479;DHT22;10398;52.490;13.434;2023-06-19T10:56:26;23.70;99.90
20479;DHT22;10398;52.490;13.434;2023-06-19T10:59:03;23.70;99.90
20479;DHT22;10398;52.490;13.434;2023-06-19T11:01:35;23.80;99.90
20479;DHT22;10398;52.490;13.434;2023-06-19T11:04:06;23.90;99.90
20479;DHT22;10398;52.490;13.434;2023-06-19T11:06:32;24.00;99.90
20479;DHT22;10398;52.490;13.434;2023-06-19T11:08:58;24.10;99.90
20479;DHT22;10398;52.490;13.434;2023-06-19T11:11:44;24.20;99.90
20479;DHT22;10398;52.490;13.434;2023-06-19T11:14:11;24.20;99.90
20479;DHT22;10398;52.490;13.434;2023-06-19T11:16:42;24.30;99.90
20479;DHT22;10398;52.490;13.434;2023-06-19T11:19:09;24.30;99.90
20479;DHT22;10398;52.490;13.434;2023-06-19T11:21:37;24.20;99.90
20479;DHT22;10398;52.490;13.434;2023-06-19T11:24:11;24.20;99.90
20479;DHT22;10398;52.490;13.434;2023-06-19T11:26:41;24.30;99.90
20479;DHT22;10398;52.490;13.434;2023-06-19T11:31:41;24.30;99.90
20479;DHT22;10398;52.490;13.434;2023-06-19T11:34:06;24.30;99.90
20479;DHT22;10398;52.490;13.434;2023-06-19T11:36:32;24.30;99.90
20479;DHT22;10398;52.490;13.434;2023-06-19T11:38:57;24.30;99.90
20479;DHT22;10398;52.490;13.434;2023-06-19T11:41:27;24.30;99.90
20479;DHT22;10398;52.490;13.434;2023-06-19T11:44:03;24.40;99.90
20479;DHT22;10398;52.490;13.434;2023-06-19T11:46:31;24.40;99.90
20479;DHT22;10398;52.490;13.434;2023-06-19T11:49:10;24.40;99.90
20479;DHT22;10398;52.490;13.434;2023-06-19T11:51:36;24.50;99.90
20479;DHT22;10398;52.490;13.434;2023-06-19T11:54:05;24.50;99.90
20479;DHT22;10398;52.490;13.434;2023-06-19T11:56:30;24.70;99.90
20479;DHT22;10398;52.490;13.434;2023-06-19T11:58:56;24.80;99.90
20479;DHT22;10398;52.490;13.434;2023-06-19T12:01:21;24.90;99.90
20479;DHT22;10398;52.490;13.434;2023-06-19T12:03:47;25.00;99.90
20479;DHT22;10398;52.490;13.434;2023-06-19T12:06:13;25.20;99.90
20479;DHT22;10398;52.490;13.434;2023-06-19T12:08:38;25.30;99.90
20479;DHT22;10398;52.490;13.434;2023-06-19T12:11:04;25.40;99.90
20479;DHT22;10398;52.490;13.434;2023-06-19T12:13:33;25.50;99.90
20479;DHT22;10398;52.490;13.434;2023-06-19T12:15:59;25.50;99.90
20479;DHT22;10398;52.490;13.434;2023-06-19T12:18:24;25.50;99.90
20479;DHT22;10398;52.490;13.434;2023-06-19T12:20:50;25.50;99.90
20479;DHT22;10398;52.490;13.434;2023-06-19T12:23:15;25.50;99.90
20479;DHT22;10398;52.490;13.434;2023-06-19T12:25:41;25.60;99.90
20479;DHT22;10398;52.490;13.434;2023-06-19T12:28:07;25.70;99.90
20479;DHT22;10398;52.490;13.434;2023-06-19T12:30:34;25.70;99.90
20479;DHT22;10398;52.490;13.434;2023-06-19T12:33:00;25.90;99.90
20479;DHT22;10398;52.490;13.434;2023-06-19T12:35:26;26.00;99.90
20479;DHT22;10398;52.490;13.434;2023-06-19T12:37:52;26.20;99.90
20479;DHT22;10398;52.490;13.434;2023-06-19T12:40:18;26.30;99.90
20479;DHT22;10398;52.490;13.434;2023-06-19T12:42:43;26.50;99.90
20479;DHT22;10398;52.490;13.434;2023-06-19T12:45:09;26.60;99.90
20479;DHT22;10398;52.490;13.434;2023-06-19T12:47:36;26.70;99.90
20479;DHT22;10398;52.490;13.434;2023-06-19T12:50:02;26.70;99.90
20479;DHT22;10398;52.490;13.434;2023-06-19T12:52:28;26.80;99.90
20479;DHT22;10398;52.490;13.434;2023-06-19T12:54:53;26.90;99.90
20479;DHT22;10398;52.490;13.434;2023-06-19T12:57:19;27.00;99.90
20479;DHT22;10398;52.490;13.434;2023-06-19T12:59:45;27.10;99.90
20479;DHT22;10398;52.490;13.434;2023-06-19T13:02:10;27.20;99.90
20479;DHT22;10398;52.490;13.434;2023-06-19T13:04:36;27.30;99.90
20479;DHT22;10398;52.490;13.434;2023-06-19T13:07:03;27.40;99.90
20479;DHT22;10398;52.490;13.434;2023-06-19T13:09:29;27.30;99.90
20479;DHT22;10398;52.490;13.434;2023-06-19T13:11:55;27.30;99.90
20479;DHT22;10398;52.490;13.434;2023-06-19T13:14:21;27.20;99.90
20479;DHT22;10398;52.490;13.434;2023-06-19T13:16:46;27.20;99.90
20479;DHT22;10398;52.490;13.434;2023-06-19T13:19:13;27.20;99.90
20479;DHT22;10398;52.490;13.434;2023-06-19T13:21:39;27.30;99.90
20479;DHT22;10398;52.490;13.434;2023-06-19T13:24:05;27.50;99.90
20479;DHT22;10398;52.490;13.434;2023-06-19T13:26:31;27.50;99.90
20479;DHT22;10398;52.490;13.434;2023-06-19T13:28:56;27.60;99.90
20479;DHT22;10398;52.490;13.434;2023-06-19T13:31:24;27.60;99.90
20479;DHT22;10398;52.490;13.434;2023-06-19T13:33:50;27.50;99.90
20479;DHT22;10398;52.490;13.434;2023-06-19T13:36:16;27.50;99.90
20479;DHT22;10398;52.490;13.434;2023-06-19T13:38:44;27.60;99.90
20479;DHT22;10398;52.490;13.434;2023-06-19T13:41:09;27.50;99.90
20479;DHT22;10398;52.490;13.434;2023-06-19T13:43:35;27.50;99.90
20479;DHT22;10398;52.490;13.434;2023-06-19T13:46:01;27.50;99.90
20479;DHT22;10398;52.490;13.434;2023-06-19T13:48:28;27.60;99.90
20479;DHT22;10398;52.490;13.434;2023-06-19T13:50:54;27.70;99.90
20479;DHT22;10398;52.490;13.434;2023-06-19T13:53:20;27.80;99.90
20479;DHT22;10398;52.490;13.434;2023-06-19T13:55:47;27.80;99.90
20479;DHT22;10398;52.490;13.434;2023-06-19T13:58:12;27.90;99.90
20479;DHT22;10398;52.490;13.434;2023-06-19T14:00:38;27.90;99.90
20479;DHT22;10398;52.490;13.434;2023-06-19T14:03:04;27.90;99.90
20479;DHT22;10398;52.490;13.434;2023-06-19T14:05:32;27.90;99.90
20479;DHT22;10398;52.490;13.434;2023-06-19T14:08:01;27.80;99.90
20479;DHT22;10398;52.490;13.434;2023-06-19T14:10:28;27.70;99.90
20479;DHT22;10398;52.490;13.434;2023-06-19T14:12:54;27.70;99.90
20479;DHT22;10398;52.490;13.434;2023-06-19T14:15:20;27.60;99.90
20479;DHT22;10398;52.490;13.434;2023-06-19T14:17:46;27.70;99.90
20479;DHT22;10398;52.490;13.434;2023-06-19T14:20:12;27.70;99.90
20479;DHT22;10398;52.490;13.434;2023-06-19T14:22:38;27.70;99.90
20479;DHT22;10398;52.490;13.434;2023-06-19T14:25:04;27.80;99.90
20479;DHT22;10398;52.490;13.434;2023-06-19T14:27:30;27.70;99.90
20479;DHT22;10398;52.490;13.434;2023-06-19T14:29:56;27.80;99.90
20479;DHT22;10398;52.490;13.434;2023-06-19T14:32:22;27.80;99.90
20479;DHT22;10398;52.490;13.434;2023-06-19T14:34:51;27.80;99.90
20479;DHT22;10398;52.490;13.434;2023-06-19T14:37:17;27.80;99.90
20479;DHT22;10398;52.490;13.434;2023-06-19T14:39:43;27.70;99.90
20479;DHT22;10398;52.490;13.434;2023-06-19T14:42:08;27.70;99.90
20479;DHT22;10398;52.490;13.434;2023-06-19T14:44:36;27.80;99.90
20479;DHT22;10398;52.490;13.434;2023-06-19T14:47:01;27.80;99.90
20479;DHT22;10398;52.490;13.434;2023-06-19T14:49:27;27.80;99.90
20479;DHT22;10398;52.490;13.434;2023-06-19T14:51:53;27.80;99.90
20479;DHT22;10398;52.490;13.434;2023-06-19T14:54:19;27.90;99.90
20479;DHT22;10398;52.490;13.434;2023-06-19T14:56:45;27.90;99.90
20479;DHT22;10398;52.490;13.434;2023-06-19T14:59:13;27.90;99.90
20479;DHT22;10398;52.490;13.434;2023-06-19T15:01:39;28.00;99.90
20479;DHT22;10398;52.490;13.434;2023-06-19T15:04:06;28.10;99.90
20479;DHT22;10398;52.490;13.434;2023-06-19T15:06:32;28.20;99.90
20479;DHT22;10398;52.490;13.434;2023-06-19T15:08:58;28.30;99.90
20479;DHT22;10398;52.490;13.434;2023-06-19T15:11:23;28.30;99.90
20479;DHT22;10398;52.490;13.434;2023-06-19T15:13:49;28.40;99.90
20479;DHT22;10398;52.490;13.434;2023-06-19T15:16:15;28.40;99.90